Terminal Aerodrome Forecast
Issued by NWS Sterling, VA

Current Version | Previous Version | Graphics & Text | Print | Product List | Glossary On
Versions: 1 2 3 4 5 6 7 8 9 10 11 12 13 14 15 16 17 18 19 20 21 22 23 24 25 26 27 28
000
FTUS41 KLWX 032051 AAA
TAFIAD
TAF AMD
KIAD 032051Z 0321/0424 15006KT P6SM SCT050 OVC100
     FM032200 15005KT 6SM -SHRA BKN050 OVC100
     FM040400 13006KT 5SM -SHRA OVC050
     FM040700 11005KT 3SM -SHRA OVC040
     FM041000 07004KT 3SM -SHRA SCT008 OVC015
     FM041600 34006KT P6SM OVC035=

USA.gov is the U.S. government's official web portal to all federal, state and local government web resources and services.